sensor_id;sensor_type;location;lat;lon;timestamp;P1;durP1;ratioP1;P2;durP2;ratioP2
2602;SDS011;1311;47.966;7.958;2023-06-14T00:00:41;8.07;;;5.30;;
2602;SDS011;1311;47.966;7.958;2023-06-14T00:03:08;4.87;;;4.47;;
2602;SDS011;1311;47.966;7.958;2023-06-14T00:05:36;7.70;;;4.90;;
2602;SDS011;1311;47.966;7.958;2023-06-14T00:08:07;8.33;;;5.20;;
2602;SDS011;1311;47.966;7.958;2023-06-14T00:10:36;7.23;;;5.67;;
2602;SDS011;1311;47.966;7.958;2023-06-14T00:13:07;6.40;;;5.10;;
2602;SDS011;1311;47.966;7.958;2023-06-14T00:15:34;5.23;;;4.70;;
2602;SDS011;1311;47.966;7.958;2023-06-14T00:18:01;5.40;;;4.90;;
2602;SDS011;1311;47.966;7.958;2023-06-14T00:20:28;5.20;;;4.63;;
2602;SDS011;1311;47.966;7.958;2023-06-14T00:22:57;4.50;;;4.10;;
2602;SDS011;1311;47.966;7.958;2023-06-14T00:25:24;4.90;;;4.40;;
2602;SDS011;1311;47.966;7.958;2023-06-14T00:27:51;4.60;;;4.17;;
2602;SDS011;1311;47.966;7.958;2023-06-14T00:30:20;4.80;;;4.03;;
2602;SDS011;1311;47.966;7.958;2023-06-14T00:32:47;4.63;;;4.23;;
2602;SDS011;1311;47.966;7.958;2023-06-14T00:35:14;8.10;;;5.33;;
2602;SDS011;1311;47.966;7.958;2023-06-14T00:37:41;6.50;;;4.47;;
2602;SDS011;1311;47.966;7.958;2023-06-14T00:40:08;4.73;;;4.33;;
2602;SDS011;1311;47.966;7.958;2023-06-14T00:42:35;6.03;;;4.57;;
2602;SDS011;1311;47.966;7.958;2023-06-14T00:45:02;4.43;;;4.03;;
2602;SDS011;1311;47.966;7.958;2023-06-14T00:47:30;4.63;;;4.23;;
2602;SDS011;1311;47.966;7.958;2023-06-14T00:49:57;5.07;;;4.20;;
2602;SDS011;1311;47.966;7.958;2023-06-14T00:52:24;4.83;;;4.37;;
2602;SDS011;1311;47.966;7.958;2023-06-14T00:54:51;5.30;;;4.80;;
2602;SDS011;1311;47.966;7.958;2023-06-14T00:57:18;5.70;;;5.10;;
2602;SDS011;1311;47.966;7.958;2023-06-14T00:59:48;5.40;;;4.90;;
2602;SDS011;1311;47.966;7.958;2023-06-14T01:02:16;5.90;;;4.40;;
2602;SDS011;1311;47.966;7.958;2023-06-14T01:04:45;4.87;;;4.47;;
2602;SDS011;1311;47.966;7.958;2023-06-14T01:07:15;5.20;;;4.50;;
2602;SDS011;1311;47.966;7.958;2023-06-14T01:09:55;7.90;;;5.07;;
2602;SDS011;1311;47.966;7.958;2023-06-14T01:12:36;5.83;;;5.20;;
2602;SDS011;1311;47.966;7.958;2023-06-14T01:15:07;5.67;;;4.77;;
2602;SDS011;1311;47.966;7.958;2023-06-14T01:17:35;5.30;;;4.20;;
2602;SDS011;1311;47.966;7.958;2023-06-14T01:20:10;5.03;;;4.03;;
2602;SDS011;1311;47.966;7.958;2023-06-14T01:22:45;5.80;;;4.57;;
2602;SDS011;1311;47.966;7.958;2023-06-14T01:25:16;4.83;;;4.33;;
2602;SDS011;1311;47.966;7.958;2023-06-14T01:27:45;4.40;;;4.00;;
2602;SDS011;1311;47.966;7.958;2023-06-14T01:30:14;5.33;;;4.67;;
2602;SDS011;1311;47.966;7.958;2023-06-14T01:32:42;9.30;;;4.77;;
2602;SDS011;1311;47.966;7.958;2023-06-14T01:35:10;4.50;;;4.13;;
2602;SDS011;1311;47.966;7.958;2023-06-14T01:37:37;5.23;;;4.20;;
2602;SDS011;1311;47.966;7.958;2023-06-14T01:40:07;4.07;;;3.67;;
2602;SDS011;1311;47.966;7.958;2023-06-14T01:42:36;3.93;;;3.57;;
2602;SDS011;1311;47.966;7.958;2023-06-14T01:45:05;4.70;;;4.30;;
2602;SDS011;1311;47.966;7.958;2023-06-14T01:47:32;4.97;;;3.73;;
2602;SDS011;1311;47.966;7.958;2023-06-14T01:50:01;5.60;;;3.43;;
2602;SDS011;1311;47.966;7.958;2023-06-14T01:52:28;5.30;;;4.30;;
2602;SDS011;1311;47.966;7.958;2023-06-14T01:54:55;4.60;;;3.77;;
2602;SDS011;1311;47.966;7.958;2023-06-14T01:57:24;4.80;;;3.60;;
2602;SDS011;1311;47.966;7.958;2023-06-14T01:59:52;3.50;;;3.20;;
2602;SDS011;1311;47.966;7.958;2023-06-14T02:02:19;4.20;;;3.80;;
2602;SDS011;1311;47.966;7.958;2023-06-14T02:04:45;4.10;;;3.70;;
2602;SDS011;1311;47.966;7.958;2023-06-14T02:07:13;5.47;;;4.50;;
2602;SDS011;1311;47.966;7.958;2023-06-14T02:09:40;4.20;;;3.47;;
2602;SDS011;1311;47.966;7.958;2023-06-14T02:12:07;4.30;;;3.90;;
2602;SDS011;1311;47.966;7.958;2023-06-14T02:14:36;3.90;;;3.40;;
2602;SDS011;1311;47.966;7.958;2023-06-14T02:17:04;4.83;;;3.80;;
2602;SDS011;1311;47.966;7.958;2023-06-14T02:19:31;4.00;;;3.43;;
2602;SDS011;1311;47.966;7.958;2023-06-14T02:21:58;4.50;;;4.10;;
2602;SDS011;1311;47.966;7.958;2023-06-14T02:24:25;4.00;;;3.30;;
2602;SDS011;1311;47.966;7.958;2023-06-14T02:26:52;5.17;;;3.50;;
2602;SDS011;1311;47.966;7.958;2023-06-14T02:29:18;5.70;;;3.80;;
2602;SDS011;1311;47.966;7.958;2023-06-14T02:31:47;5.80;;;4.10;;
2602;SDS011;1311;47.966;7.958;2023-06-14T02:34:14;4.50;;;3.70;;
2602;SDS011;1311;47.966;7.958;2023-06-14T02:36:42;4.33;;;3.67;;
2602;SDS011;1311;47.966;7.958;2023-06-14T02:39:09;3.50;;;3.20;;
2602;SDS011;1311;47.966;7.958;2023-06-14T02:41:37;5.97;;;3.70;;
2602;SDS011;1311;47.966;7.958;2023-06-14T02:44:04;3.80;;;3.50;;
2602;SDS011;1311;47.966;7.958;2023-06-14T02:46:31;5.17;;;3.63;;
2602;SDS011;1311;47.966;7.958;2023-06-14T02:49:00;4.33;;;3.60;;
2602;SDS011;1311;47.966;7.958;2023-06-14T02:51:27;5.80;;;3.60;;
2602;SDS011;1311;47.966;7.958;2023-06-14T02:53:53;3.87;;;3.40;;
2602;SDS011;1311;47.966;7.958;2023-06-14T02:56:20;4.13;;;3.50;;
2602;SDS011;1311;47.966;7.958;2023-06-14T02:58:47;3.73;;;3.27;;
2602;SDS011;1311;47.966;7.958;2023-06-14T03:01:14;4.00;;;3.57;;
2602;SDS011;1311;47.966;7.958;2023-06-14T03:03:42;3.60;;;3.30;;
2602;SDS011;1311;47.966;7.958;2023-06-14T03:06:10;4.50;;;3.73;;
2602;SDS011;1311;47.966;7.958;2023-06-14T03:08:39;6.43;;;3.03;;
2602;SDS011;1311;47.966;7.958;2023-06-14T03:11:06;3.30;;;3.00;;
2602;SDS011;1311;47.966;7.958;2023-06-14T03:13:33;3.73;;;2.63;;
2602;SDS011;1311;47.966;7.958;2023-06-14T03:16:00;3.80;;;3.07;;
2602;SDS011;1311;47.966;7.958;2023-06-14T03:18:28;8.13;;;3.50;;
2602;SDS011;1311;47.966;7.958;2023-06-14T03:21:00;4.87;;;3.30;;
2602;SDS011;1311;47.966;7.958;2023-06-14T03:23:29;4.60;;;3.80;;
2602;SDS011;1311;47.966;7.958;2023-06-14T03:25:56;3.33;;;3.03;;
2602;SDS011;1311;47.966;7.958;2023-06-14T03:28:23;3.93;;;3.50;;
2602;SDS011;1311;47.966;7.958;2023-06-14T03:30:49;6.70;;;3.70;;
2602;SDS011;1311;47.966;7.958;2023-06-14T03:33:16;4.63;;;3.57;;
2602;SDS011;1311;47.966;7.958;2023-06-14T03:35:43;8.53;;;3.23;;
2602;SDS011;1311;47.966;7.958;2023-06-14T03:38:10;3.93;;;3.33;;
2602;SDS011;1311;47.966;7.958;2023-06-14T03:40:38;3.67;;;3.47;;
2602;SDS011;1311;47.966;7.958;2023-06-14T03:43:04;9.90;;;4.10;;
2602;SDS011;1311;47.966;7.958;2023-06-14T03:45:31;4.33;;;3.20;;
2602;SDS011;1311;47.966;7.958;2023-06-14T03:47:58;7.87;;;4.33;;
2602;SDS011;1311;47.966;7.958;2023-06-14T03:50:25;3.30;;;3.00;;
2602;SDS011;1311;47.966;7.958;2023-06-14T03:52:53;3.67;;;2.97;;
2602;SDS011;1311;47.966;7.958;2023-06-14T03:55:19;3.40;;;2.80;;
2602;SDS011;1311;47.966;7.958;2023-06-14T03:57:47;3.40;;;3.10;;
2602;SDS011;1311;47.966;7.958;2023-06-14T04:00:15;8.63;;;3.77;;
2602;SDS011;1311;47.966;7.958;2023-06-14T04:02:43;4.80;;;3.97;;
2602;SDS011;1311;47.966;7.958;2023-06-14T04:05:10;4.30;;;3.00;;
2602;SDS011;1311;47.966;7.958;2023-06-14T04:07:37;5.47;;;4.87;;
2602;SDS011;1311;47.966;7.958;2023-06-14T04:10:05;3.63;;;3.30;;
2602;SDS011;1311;47.966;7.958;2023-06-14T04:12:33;3.17;;;2.87;;
2602;SDS011;1311;47.966;7.958;2023-06-14T04:15:01;5.37;;;4.60;;
2602;SDS011;1311;47.966;7.958;2023-06-14T04:17:31;4.40;;;4.00;;
2602;SDS011;1311;47.966;7.958;2023-06-14T04:19:59;4.30;;;3.90;;
2602;SDS011;1311;47.966;7.958;2023-06-14T04:22:25;5.10;;;4.00;;
2602;SDS011;1311;47.966;7.958;2023-06-14T04:24:53;4.30;;;3.90;;
2602;SDS011;1311;47.966;7.958;2023-06-14T04:27:21;4.80;;;4.30;;
2602;SDS011;1311;47.966;7.958;2023-06-14T04:29:50;4.20;;;3.80;;
2602;SDS011;1311;47.966;7.958;2023-06-14T04:32:23;9.60;;;3.87;;
2602;SDS011;1311;47.966;7.958;2023-06-14T04:34:50;4.37;;;3.93;;
2602;SDS011;1311;47.966;7.958;2023-06-14T04:37:18;4.90;;;4.40;;
2602;SDS011;1311;47.966;7.958;2023-06-14T04:39:46;5.00;;;4.50;;
2602;SDS011;1311;47.966;7.958;2023-06-14T04:42:13;5.10;;;3.80;;
2602;SDS011;1311;47.966;7.958;2023-06-14T04:44:41;6.73;;;4.47;;
2602;SDS011;1311;47.966;7.958;2023-06-14T04:47:08;4.23;;;3.93;;
2602;SDS011;1311;47.966;7.958;2023-06-14T04:49:37;4.53;;;3.47;;
2602;SDS011;1311;47.966;7.958;2023-06-14T04:52:05;3.70;;;3.30;;
2602;SDS011;1311;47.966;7.958;2023-06-14T04:54:32;4.10;;;3.70;;
2602;SDS011;1311;47.966;7.958;2023-06-14T04:57:02;3.77;;;3.47;;
2602;SDS011;1311;47.966;7.958;2023-06-14T04:59:29;4.80;;;4.13;;
2602;SDS011;1311;47.966;7.958;2023-06-14T05:01:58;3.90;;;3.50;;
2602;SDS011;1311;47.966;7.958;2023-06-14T05:04:25;4.07;;;3.70;;
2602;SDS011;1311;47.966;7.958;2023-06-14T05:06:54;3.57;;;3.27;;
2602;SDS011;1311;47.966;7.958;2023-06-14T05:09:21;4.00;;;3.60;;
2602;SDS011;1311;47.966;7.958;2023-06-14T05:11:48;4.00;;;3.70;;
2602;SDS011;1311;47.966;7.958;2023-06-14T05:14:15;4.33;;;3.90;;
2602;SDS011;1311;47.966;7.958;2023-06-14T05:16:42;3.67;;;3.33;;
2602;SDS011;1311;47.966;7.958;2023-06-14T05:19:09;4.40;;;3.93;;
2602;SDS011;1311;47.966;7.958;2023-06-14T05:21:36;3.87;;;3.47;;
2602;SDS011;1311;47.966;7.958;2023-06-14T05:24:04;7.03;;;4.03;;
2602;SDS011;1311;47.966;7.958;2023-06-14T05:26:31;4.30;;;3.90;;
2602;SDS011;1311;47.966;7.958;2023-06-14T05:28:58;4.43;;;4.03;;
2602;SDS011;1311;47.966;7.958;2023-06-14T05:31:26;3.93;;;3.63;;
2602;SDS011;1311;47.966;7.958;2023-06-14T05:33:53;3.70;;;3.40;;
2602;SDS011;1311;47.966;7.958;2023-06-14T05:36:20;3.83;;;3.53;;
2602;SDS011;1311;47.966;7.958;2023-06-14T05:38:47;4.97;;;3.57;;
2602;SDS011;1311;47.966;7.958;2023-06-14T05:41:15;8.10;;;3.70;;
2602;SDS011;1311;47.966;7.958;2023-06-14T05:43:42;5.50;;;3.13;;
2602;SDS011;1311;47.966;7.958;2023-06-14T05:46:08;3.73;;;3.43;;
2602;SDS011;1311;47.966;7.958;2023-06-14T05:48:35;3.60;;;3.30;;
2602;SDS011;1311;47.966;7.958;2023-06-14T05:51:02;3.63;;;3.33;;
2602;SDS011;1311;47.966;7.958;2023-06-14T05:53:29;4.60;;;3.70;;
2602;SDS011;1311;47.966;7.958;2023-06-14T05:55:55;3.77;;;3.40;;
2602;SDS011;1311;47.966;7.958;2023-06-14T05:58:23;3.50;;;3.20;;
2602;SDS011;1311;47.966;7.958;2023-06-14T06:00:50;3.40;;;3.10;;
2602;SDS011;1311;47.966;7.958;2023-06-14T06:03:18;3.93;;;3.53;;
2602;SDS011;1311;47.966;7.958;2023-06-14T06:05:46;3.90;;;3.60;;
2602;SDS011;1311;47.966;7.958;2023-06-14T06:08:12;3.93;;;3.63;;
2602;SDS011;1311;47.966;7.958;2023-06-14T06:10:41;2.97;;;2.77;;
2602;SDS011;1311;47.966;7.958;2023-06-14T06:13:08;4.83;;;3.20;;
2602;SDS011;1311;47.966;7.958;2023-06-14T06:15:36;4.73;;;3.80;;
2602;SDS011;1311;47.966;7.958;2023-06-14T06:18:03;3.80;;;3.50;;
2602;SDS011;1311;47.966;7.958;2023-06-14T06:20:30;3.50;;;3.20;;
2602;SDS011;1311;47.966;7.958;2023-06-14T06:22:56;3.77;;;3.47;;
2602;SDS011;1311;47.966;7.958;2023-06-14T06:25:23;3.47;;;3.17;;
2602;SDS011;1311;47.966;7.958;2023-06-14T06:27:51;3.50;;;3.30;;
2602;SDS011;1311;47.966;7.958;2023-06-14T06:30:18;5.60;;;3.80;;
2602;SDS011;1311;47.966;7.958;2023-06-14T06:32:46;5.13;;;4.33;;
2602;SDS011;1311;47.966;7.958;2023-06-14T06:35:13;4.63;;;4.20;;
2602;SDS011;1311;47.966;7.958;2023-06-14T06:37:41;4.33;;;3.93;;
2602;SDS011;1311;47.966;7.958;2023-06-14T06:40:08;3.97;;;3.33;;
2602;SDS011;1311;47.966;7.958;2023-06-14T06:42:35;3.93;;;3.63;;
2602;SDS011;1311;47.966;7.958;2023-06-14T06:45:02;4.60;;;3.70;;
2602;SDS011;1311;47.966;7.958;2023-06-14T06:47:30;5.80;;;3.67;;
2602;SDS011;1311;47.966;7.958;2023-06-14T06:49:58;4.63;;;3.70;;
2602;SDS011;1311;47.966;7.958;2023-06-14T06:52:25;3.80;;;3.50;;
2602;SDS011;1311;47.966;7.958;2023-06-14T06:54:51;4.03;;;3.30;;
2602;SDS011;1311;47.966;7.958;2023-06-14T06:57:20;3.50;;;3.20;;
2602;SDS011;1311;47.966;7.958;2023-06-14T06:59:47;4.17;;;3.77;;
2602;SDS011;1311;47.966;7.958;2023-06-14T07:02:14;7.13;;;3.60;;
2602;SDS011;1311;47.966;7.958;2023-06-14T07:04:41;4.30;;;3.90;;
2602;SDS011;1311;47.966;7.958;2023-06-14T07:07:09;5.30;;;3.13;;
2602;SDS011;1311;47.966;7.958;2023-06-14T07:09:36;4.23;;;3.80;;
2602;SDS011;1311;47.966;7.958;2023-06-14T07:12:03;3.53;;;3.17;;
2602;SDS011;1311;47.966;7.958;2023-06-14T07:14:30;4.17;;;3.83;;
2602;SDS011;1311;47.966;7.958;2023-06-14T07:16:57;4.70;;;4.20;;
2602;SDS011;1311;47.966;7.958;2023-06-14T07:19:24;3.97;;;3.67;;
2602;SDS011;1311;47.966;7.958;2023-06-14T07:21:51;5.37;;;3.70;;
2602;SDS011;1311;47.966;7.958;2023-06-14T07:24:19;3.70;;;3.40;;
2602;SDS011;1311;47.966;7.958;2023-06-14T07:26:46;4.30;;;3.80;;
2602;SDS011;1311;47.966;7.958;2023-06-14T07:29:14;4.90;;;4.37;;
2602;SDS011;1311;47.966;7.958;2023-06-14T07:31:41;4.23;;;3.80;;
2602;SDS011;1311;47.966;7.958;2023-06-14T07:34:08;6.10;;;4.40;;
2602;SDS011;1311;47.966;7.958;2023-06-14T07:36:35;4.77;;;4.27;;
2602;SDS011;1311;47.966;7.958;2023-06-14T07:39:03;5.00;;;4.50;;
2602;SDS011;1311;47.966;7.958;2023-06-14T07:41:32;4.30;;;3.97;;
2602;SDS011;1311;47.966;7.958;2023-06-14T07:43:59;4.90;;;4.50;;
2602;SDS011;1311;47.966;7.958;2023-06-14T07:46:26;5.00;;;4.20;;
2602;SDS011;1311;47.966;7.958;2023-06-14T07:48:53;5.70;;;4.70;;
2602;SDS011;1311;47.966;7.958;2023-06-14T07:51:20;4.43;;;3.90;;
2602;SDS011;1311;47.966;7.958;2023-06-14T07:53:48;4.90;;;4.40;;
2602;SDS011;1311;47.966;7.958;2023-06-14T07:56:15;5.20;;;4.70;;
2602;SDS011;1311;47.966;7.958;2023-06-14T07:58:43;5.40;;;4.80;;
2602;SDS011;1311;47.966;7.958;2023-06-14T08:01:09;4.80;;;4.40;;
2602;SDS011;1311;47.966;7.958;2023-06-14T08:03:37;6.00;;;4.80;;
2602;SDS011;1311;47.966;7.958;2023-06-14T08:06:04;5.00;;;4.60;;
2602;SDS011;1311;47.966;7.958;2023-06-14T08:08:32;5.10;;;4.60;;
2602;SDS011;1311;47.966;7.958;2023-06-14T08:10:59;5.07;;;4.53;;
2602;SDS011;1311;47.966;7.958;2023-06-14T08:13:26;5.33;;;4.93;;
2602;SDS011;1311;47.966;7.958;2023-06-14T08:15:54;5.37;;;4.87;;
2602;SDS011;1311;47.966;7.958;2023-06-14T08:18:22;4.87;;;4.13;;
2602;SDS011;1311;47.966;7.958;2023-06-14T08:20:49;9.37;;;5.07;;
2602;SDS011;1311;47.966;7.958;2023-06-14T08:23:17;5.03;;;4.53;;
2602;SDS011;1311;47.966;7.958;2023-06-14T08:25:46;5.30;;;4.50;;
2602;SDS011;1311;47.966;7.958;2023-06-14T08:28:12;5.30;;;4.30;;
2602;SDS011;1311;47.966;7.958;2023-06-14T08:30:39;6.97;;;4.93;;
2602;SDS011;1311;47.966;7.958;2023-06-14T08:33:08;5.30;;;4.80;;
2602;SDS011;1311;47.966;7.958;2023-06-14T08:35:35;5.90;;;4.43;;
2602;SDS011;1311;47.966;7.958;2023-06-14T08:38:04;5.63;;;4.83;;
2602;SDS011;1311;47.966;7.958;2023-06-14T08:40:31;5.80;;;5.10;;
2602;SDS011;1311;47.966;7.958;2023-06-14T08:43:03;5.27;;;4.67;;
2602;SDS011;1311;47.966;7.958;2023-06-14T08:45:30;5.37;;;4.60;;
2602;SDS011;1311;47.966;7.958;2023-06-14T08:47:57;4.90;;;4.37;;
2602;SDS011;1311;47.966;7.958;2023-06-14T08:50:27;9.00;;;5.70;;
2602;SDS011;1311;47.966;7.958;2023-06-14T08:52:55;6.60;;;5.80;;
2602;SDS011;1311;47.966;7.958;2023-06-14T08:55:25;5.30;;;4.80;;
2602;SDS011;1311;47.966;7.958;2023-06-14T08:57:54;7.00;;;5.10;;
2602;SDS011;1311;47.966;7.958;2023-06-14T09:00:22;5.63;;;5.13;;
2602;SDS011;1311;47.966;7.958;2023-06-14T09:02:50;5.97;;;5.17;;
2602;SDS011;1311;47.966;7.958;2023-06-14T09:05:20;5.30;;;4.80;;
2602;SDS011;1311;47.966;7.958;2023-06-14T09:07:50;5.97;;;5.17;;
2602;SDS011;1311;47.966;7.958;2023-06-14T09:10:17;6.10;;;5.10;;
2602;SDS011;1311;47.966;7.958;2023-06-14T09:12:46;5.40;;;4.90;;
2602;SDS011;1311;47.966;7.958;2023-06-14T09:15:13;6.07;;;5.57;;
2602;SDS011;1311;47.966;7.958;2023-06-14T09:17:40;6.03;;;5.30;;
2602;SDS011;1311;47.966;7.958;2023-06-14T09:20:08;5.83;;;5.23;;
2602;SDS011;1311;47.966;7.958;2023-06-14T09:22:36;7.30;;;5.20;;
2602;SDS011;1311;47.966;7.958;2023-06-14T09:25:04;6.17;;;5.57;;
2602;SDS011;1311;47.966;7.958;2023-06-14T09:27:32;5.53;;;5.03;;
2602;SDS011;1311;47.966;7.958;2023-06-14T09:30:01;5.70;;;5.10;;
2602;SDS011;1311;47.966;7.958;2023-06-14T09:32:28;5.70;;;5.20;;
2602;SDS011;1311;47.966;7.958;2023-06-14T09:34:55;5.87;;;5.27;;
2602;SDS011;1311;47.966;7.958;2023-06-14T09:37:26;6.60;;;5.97;;
2602;SDS011;1311;47.966;7.958;2023-06-14T09:39:54;5.77;;;5.17;;
2602;SDS011;1311;47.966;7.958;2023-06-14T09:42:22;6.40;;;5.73;;
2602;SDS011;1311;47.966;7.958;2023-06-14T09:44:51;7.50;;;5.43;;
2602;SDS011;1311;47.966;7.958;2023-06-14T09:47:19;9.87;;;5.50;;
2602;SDS011;1311;47.966;7.958;2023-06-14T09:49:46;8.40;;;5.93;;
2602;SDS011;1311;47.966;7.958;2023-06-14T09:52:15;6.10;;;5.60;;
2602;SDS011;1311;47.966;7.958;2023-06-14T09:54:43;7.80;;;5.30;;
2602;SDS011;1311;47.966;7.958;2023-06-14T09:57:12;5.90;;;5.40;;
2602;SDS011;1311;47.966;7.958;2023-06-14T09:59:43;6.77;;;6.07;;
2602;SDS011;1311;47.966;7.958;2023-06-14T10:02:11;7.30;;;5.40;;
2602;SDS011;1311;47.966;7.958;2023-06-14T10:04:45;6.27;;;5.77;;
2602;SDS011;1311;47.966;7.958;2023-06-14T10:07:17;5.63;;;4.93;;
2602;SDS011;1311;47.966;7.958;2023-06-14T10:09:46;6.30;;;5.37;;
2602;SDS011;1311;47.966;7.958;2023-06-14T10:12:16;7.20;;;5.67;;
2602;SDS011;1311;47.966;7.958;2023-06-14T10:14:49;6.77;;;6.17;;
2602;SDS011;1311;47.966;7.958;2023-06-14T10:17:20;6.10;;;5.50;;
2602;SDS011;1311;47.966;7.958;2023-06-14T10:19:54;7.53;;;5.90;;
2602;SDS011;1311;47.966;7.958;2023-06-14T10:22:30;8.70;;;6.13;;
2602;SDS011;1311;47.966;7.958;2023-06-14T10:25:01;7.30;;;5.70;;
2602;SDS011;1311;47.966;7.958;2023-06-14T10:27:32;6.00;;;5.50;;
2602;SDS011;1311;47.966;7.958;2023-06-14T10:30:05;7.20;;;5.90;;
2602;SDS011;1311;47.966;7.958;2023-06-14T10:32:33;6.43;;;5.83;;
2602;SDS011;1311;47.966;7.958;2023-06-14T10:35:01;6.27;;;5.70;;
2602;SDS011;1311;47.966;7.958;2023-06-14T10:37:34;8.90;;;5.53;;
2602;SDS011;1311;47.966;7.958;2023-06-14T10:40:29;5.43;;;4.90;;
2602;SDS011;1311;47.966;7.958;2023-06-14T10:42:57;5.63;;;5.13;;
2602;SDS011;1311;47.966;7.958;2023-06-14T10:45:25;5.70;;;4.80;;
2602;SDS011;1311;47.966;7.958;2023-06-14T10:47:51;5.90;;;5.30;;
2602;SDS011;1311;47.966;7.958;2023-06-14T10:50:19;7.20;;;5.50;;
2602;SDS011;1311;47.966;7.958;2023-06-14T10:52:54;5.93;;;5.33;;
2602;SDS011;1311;47.966;7.958;2023-06-14T10:55:21;6.30;;;5.70;;
2602;SDS011;1311;47.966;7.958;2023-06-14T10:57:50;5.57;;;5.07;;
2602;SDS011;1311;47.966;7.958;2023-06-14T11:00:21;5.50;;;5.00;;
2602;SDS011;1311;47.966;7.958;2023-06-14T11:03:10;5.60;;;5.10;;
2602;SDS011;1311;47.966;7.958;2023-06-14T11:06:06;5.77;;;5.00;;
2602;SDS011;1311;47.966;7.958;2023-06-14T11:08:51;5.60;;;4.73;;
2602;SDS011;1311;47.966;7.958;2023-06-14T11:11:46;7.33;;;4.83;;
2602;SDS011;1311;47.966;7.958;2023-06-14T11:14:14;5.50;;;4.57;;
2602;SDS011;1311;47.966;7.958;2023-06-14T11:16:41;5.30;;;4.90;;
2602;SDS011;1311;47.966;7.958;2023-06-14T11:19:09;5.40;;;4.90;;
2602;SDS011;1311;47.966;7.958;2023-06-14T11:21:39;4.73;;;4.27;;
2602;SDS011;1311;47.966;7.958;2023-06-14T11:24:09;6.53;;;5.13;;
2602;SDS011;1311;47.966;7.958;2023-06-14T11:26:37;5.57;;;5.07;;
2602;SDS011;1311;47.966;7.958;2023-06-14T11:29:04;6.53;;;5.93;;
2602;SDS011;1311;47.966;7.958;2023-06-14T11:31:31;5.40;;;4.90;;
2602;SDS011;1311;47.966;7.958;2023-06-14T11:33:59;5.70;;;5.20;;
2602;SDS011;1311;47.966;7.958;2023-06-14T11:36:27;7.33;;;4.73;;
2602;SDS011;1311;47.966;7.958;2023-06-14T11:38:59;6.90;;;5.70;;
2602;SDS011;1311;47.966;7.958;2023-06-14T11:41:31;5.53;;;5.03;;
2602;SDS011;1311;47.966;7.958;2023-06-14T11:43:59;5.20;;;4.80;;
2602;SDS011;1311;47.966;7.958;2023-06-14T11:46:27;6.40;;;5.10;;
2602;SDS011;1311;47.966;7.958;2023-06-14T11:48:53;5.83;;;5.27;;
2602;SDS011;1311;47.966;7.958;2023-06-14T11:51:20;7.93;;;5.27;;
2602;SDS011;1311;47.966;7.958;2023-06-14T11:53:48;5.70;;;5.00;;
2602;SDS011;1311;47.966;7.958;2023-06-14T11:56:15;6.53;;;5.93;;
2602;SDS011;1311;47.966;7.958;2023-06-14T11:58:42;5.60;;;4.93;;
2602;SDS011;1311;47.966;7.958;2023-06-14T12:01:13;7.07;;;5.80;;
2602;SDS011;1311;47.966;7.958;2023-06-14T12:03:46;5.83;;;5.33;;
2602;SDS011;1311;47.966;7.958;2023-06-14T12:06:14;8.00;;;5.80;;
2602;SDS011;1311;47.966;7.958;2023-06-14T12:08:43;5.63;;;5.23;;
2602;SDS011;1311;47.966;7.958;2023-06-14T12:11:12;5.63;;;4.80;;
2602;SDS011;1311;47.966;7.958;2023-06-14T12:13:40;5.80;;;5.30;;
2602;SDS011;1311;47.966;7.958;2023-06-14T12:16:07;8.40;;;4.87;;
2602;SDS011;1311;47.966;7.958;2023-06-14T12:18:34;5.97;;;4.80;;
2602;SDS011;1311;47.966;7.958;2023-06-14T12:21:04;5.70;;;5.00;;
2602;SDS011;1311;47.966;7.958;2023-06-14T12:23:44;5.50;;;5.10;;
2602;SDS011;1311;47.966;7.958;2023-06-14T12:26:16;5.20;;;4.70;;
2602;SDS011;1311;47.966;7.958;2023-06-14T12:28:44;5.77;;;5.37;;
2602;SDS011;1311;47.966;7.958;2023-06-14T12:31:12;5.93;;;5.43;;
2602;SDS011;1311;47.966;7.958;2023-06-14T12:33:39;5.67;;;5.17;;
2602;SDS011;1311;47.966;7.958;2023-06-14T12:36:07;6.13;;;5.63;;
2602;SDS011;1311;47.966;7.958;2023-06-14T12:38:35;6.30;;;4.90;;
2602;SDS011;1311;47.966;7.958;2023-06-14T12:41:02;7.00;;;5.03;;
2602;SDS011;1311;47.966;7.958;2023-06-14T12:43:30;5.67;;;5.17;;
2602;SDS011;1311;47.966;7.958;2023-06-14T12:45:57;6.10;;;5.60;;
2602;SDS011;1311;47.966;7.958;2023-06-14T12:48:24;6.40;;;5.80;;
2602;SDS011;1311;47.966;7.958;2023-06-14T12:50:52;6.37;;;5.77;;
2602;SDS011;1311;47.966;7.958;2023-06-14T12:53:19;5.97;;;5.40;;
2602;SDS011;1311;47.966;7.958;2023-06-14T12:55:46;6.70;;;4.77;;
2602;SDS011;1311;47.966;7.958;2023-06-14T12:58:12;5.90;;;5.40;;
2602;SDS011;1311;47.966;7.958;2023-06-14T13:00:40;5.73;;;5.20;;
2602;SDS011;1311;47.966;7.958;2023-06-14T13:03:07;6.57;;;5.17;;
2602;SDS011;1311;47.966;7.958;2023-06-14T13:05:34;5.57;;;5.17;;
2602;SDS011;1311;47.966;7.958;2023-06-14T13:08:02;6.10;;;5.60;;
2602;SDS011;1311;47.966;7.958;2023-06-14T13:10:29;6.37;;;5.30;;
2602;SDS011;1311;47.966;7.958;2023-06-14T13:12:56;6.13;;;5.53;;
2602;SDS011;1311;47.966;7.958;2023-06-14T13:15:25;6.30;;;5.60;;
2602;SDS011;1311;47.966;7.958;2023-06-14T13:17:53;7.20;;;5.40;;
2602;SDS011;1311;47.966;7.958;2023-06-14T13:20:20;6.90;;;6.27;;
2602;SDS011;1311;47.966;7.958;2023-06-14T13:22:47;6.30;;;5.03;;
2602;SDS011;1311;47.966;7.958;2023-06-14T13:25:13;6.73;;;5.23;;
2602;SDS011;1311;47.966;7.958;2023-06-14T13:27:40;8.50;;;5.93;;
2602;SDS011;1311;47.966;7.958;2023-06-14T13:30:07;6.27;;;5.67;;
2602;SDS011;1311;47.966;7.958;2023-06-14T13:32:35;6.87;;;5.23;;
2602;SDS011;1311;47.966;7.958;2023-06-14T13:35:03;6.10;;;5.53;;
2602;SDS011;1311;47.966;7.958;2023-06-14T13:37:31;6.60;;;5.47;;
2602;SDS011;1311;47.966;7.958;2023-06-14T13:39:58;5.60;;;5.13;;
2602;SDS011;1311;47.966;7.958;2023-06-14T13:42:24;6.43;;;5.30;;
2602;SDS011;1311;47.966;7.958;2023-06-14T13:44:51;6.67;;;5.40;;
2602;SDS011;1311;47.966;7.958;2023-06-14T13:47:18;7.23;;;5.60;;
2602;SDS011;1311;47.966;7.958;2023-06-14T13:49:45;5.90;;;5.30;;
2602;SDS011;1311;47.966;7.958;2023-06-14T13:52:13;5.90;;;5.40;;
2602;SDS011;1311;47.966;7.958;2023-06-14T13:54:40;7.13;;;5.73;;
2602;SDS011;1311;47.966;7.958;2023-06-14T13:57:08;6.00;;;5.50;;
2602;SDS011;1311;47.966;7.958;2023-06-14T13:59:37;6.57;;;5.97;;
2602;SDS011;1311;47.966;7.958;2023-06-14T14:02:04;7.90;;;5.30;;
2602;SDS011;1311;47.966;7.958;2023-06-14T14:04:31;5.30;;;4.90;;
2602;SDS011;1311;47.966;7.958;2023-06-14T14:06:59;6.53;;;5.67;;
2602;SDS011;1311;47.966;7.958;2023-06-14T14:09:27;5.87;;;5.10;;
2602;SDS011;1311;47.966;7.958;2023-06-14T14:11:54;6.33;;;5.73;;
2602;SDS011;1311;47.966;7.958;2023-06-14T14:14:20;6.00;;;5.50;;
2602;SDS011;1311;47.966;7.958;2023-06-14T14:16:48;11.67;;;6.03;;
2602;SDS011;1311;47.966;7.958;2023-06-14T14:19:16;10.30;;;5.90;;
2602;SDS011;1311;47.966;7.958;2023-06-14T14:21:43;7.30;;;5.50;;
2602;SDS011;1311;47.966;7.958;2023-06-14T14:24:10;8.97;;;5.63;;
2602;SDS011;1311;47.966;7.958;2023-06-14T14:26:38;6.73;;;6.13;;
2602;SDS011;1311;47.966;7.958;2023-06-14T14:29:05;5.70;;;5.20;;
2602;SDS011;1311;47.966;7.958;2023-06-14T14:31:32;6.20;;;5.67;;
2602;SDS011;1311;47.966;7.958;2023-06-14T14:33:59;5.70;;;5.20;;
2602;SDS011;1311;47.966;7.958;2023-06-14T14:36:25;6.23;;;5.03;;
2602;SDS011;1311;47.966;7.958;2023-06-14T14:38:52;10.67;;;5.70;;
2602;SDS011;1311;47.966;7.958;2023-06-14T14:41:19;6.47;;;5.67;;
2602;SDS011;1311;47.966;7.958;2023-06-14T14:43:47;7.70;;;5.90;;
2602;SDS011;1311;47.966;7.958;2023-06-14T14:46:14;7.30;;;5.97;;
2602;SDS011;1311;47.966;7.958;2023-06-14T14:48:41;6.13;;;5.53;;
2602;SDS011;1311;47.966;7.958;2023-06-14T14:51:08;6.70;;;5.40;;
2602;SDS011;1311;47.966;7.958;2023-06-14T14:53:35;6.60;;;5.40;;
2602;SDS011;1311;47.966;7.958;2023-06-14T14:56:02;8.40;;;5.40;;
2602;SDS011;1311;47.966;7.958;2023-06-14T14:58:28;7.20;;;5.37;;
2602;SDS011;1311;47.966;7.958;2023-06-14T15:00:56;7.43;;;5.63;;
2602;SDS011;1311;47.966;7.958;2023-06-14T15:03:23;5.80;;;5.30;;
2602;SDS011;1311;47.966;7.958;2023-06-14T15:05:50;7.43;;;5.13;;
2602;SDS011;1311;47.966;7.958;2023-06-14T15:08:17;7.57;;;5.77;;
2602;SDS011;1311;47.966;7.958;2023-06-14T15:10:43;6.07;;;5.50;;
2602;SDS011;1311;47.966;7.958;2023-06-14T15:13:12;5.97;;;5.47;;
2602;SDS011;1311;47.966;7.958;2023-06-14T15:15:38;7.97;;;5.50;;
2602;SDS011;1311;47.966;7.958;2023-06-14T15:18:07;5.80;;;5.20;;
2602;SDS011;1311;47.966;7.958;2023-06-14T15:20:34;7.10;;;5.27;;